Time;durP1;ratioP1;P1;durP2;ratioP2;P2;SDS_P1;SDS_P2;PMS_P1;PMS_P2;Temp;Humidity;BMP_temperature;BMP_pressure;BME280_temperature;BME280_humidity;BME280_pressure;Samples;Min_cycle;Max_cycle;Signal;HPM_P1;HPM_P2
2022/03/09 00:00:17;;;;;;;31.50;17.80;;;;;;;-1.78;100.00;94397.63;5073634;28;20649;-64
2022/03/09 00:02:43;;;;;;;32.37;18.80;;;;;;;-1.81;100.00;94400.22;5073611;28;20187;-63
2022/03/09 00:05:09;;;;;;;33.67;18.87;;;;;;;-1.77;100.00;94392.56;5055448;28;20678;-63
2022/03/09 00:07:34;;;;;;;29.70;16.23;;;;;;;-1.89;100.00;94398.06;5080237;22;20719;-62
2022/03/09 00:10:00;;;;;;;30.10;16.57;;;;;;;-1.89;100.00;94389.78;5073421;28;20251;-63
2022/03/09 00:12:26;;;;;;;25.47;15.30;;;;;;;-2.05;100.00;94392.09;5073531;28;20187;-64
2022/03/09 00:14:51;;;;;;;30.13;16.73;;;;;;;-1.99;100.00;94391.03;5073431;28;20201;-64
2022/03/09 00:17:16;;;;;;;33.97;19.60;;;;;;;-2.15;100.00;94383.38;5073272;28;20580;-64
2022/03/09 00:19:42;;;;;;;30.40;17.63;;;;;;;-1.94;100.00;94394.94;5055446;28;20566;-63
2022/03/09 00:22:07;;;;;;;34.20;17.87;;;;;;;-1.92;100.00;94387.44;5073173;28;20208;-61
2022/03/09 00:24:33;;;;;;;33.70;18.73;;;;;;;-2.09;100.00;94379.81;5073579;28;20240;-63
2022/03/09 00:26:59;;;;;;;30.93;18.40;;;;;;;-1.99;100.00;94389.34;5073517;28;20704;-64
2022/03/09 00:29:32;;;;;;;33.87;17.73;;;;;;;-1.99;100.00;94368.63;5073121;28;20627;-64
2022/03/09 00:31:57;;;;;;;33.17;17.53;;;;;;;-1.97;100.00;94391.78;5073628;28;20206;-63
2022/03/09 00:34:23;;;;;;;34.47;17.87;;;;;;;-2.06;100.00;94385.47;5073360;28;20187;-63
2022/03/09 00:36:49;;;;;;;32.50;18.10;;;;;;;-2.04;100.00;94386.22;5055068;28;20210;-60
2022/03/09 00:39:14;;;;;;;30.50;17.13;;;;;;;-1.99;100.00;94381.88;5073090;28;20657;-61
2022/03/09 00:41:39;;;;;;;32.67;17.67;;;;;;;-1.87;100.00;94383.06;5073336;28;20290;-61
2022/03/09 00:44:05;;;;;;;34.03;17.97;;;;;;;-1.93;100.00;94394.09;5072600;28;20648;-63
2022/03/09 00:46:32;;;;;;;35.43;18.67;;;;;;;-2.04;100.00;94377.97;5073380;28;20196;-62
2022/03/09 00:48:57;;;;;;;28.90;15.77;;;;;;;-2.16;100.00;94383.44;5072802;28;20188;-63
2022/03/09 00:51:23;;;;;;;32.17;17.83;;;;;;;-2.20;100.00;94367.03;5055046;28;20622;-64
2022/03/09 00:53:49;;;;;;;32.43;17.40;;;;;;;-2.12;100.00;94378.25;5072739;28;20183;-64
2022/03/09 00:56:14;;;;;;;30.27;17.53;;;;;;;-2.15;100.00;94375.91;5073060;28;20200;-62
2022/03/09 00:58:40;;;;;;;30.50;16.53;;;;;;;-2.18;100.00;94373.53;5072540;28;20213;-61
2022/03/09 01:01:06;;;;;;;34.80;18.13;;;;;;;-2.08;100.00;94376.47;5054589;28;20739;-63
2022/03/09 01:03:32;;;;;;;29.33;17.60;;;;;;;-2.09;100.00;94379.81;5072663;28;20269;-63
2022/03/09 01:05:58;;;;;;;29.90;16.50;;;;;;;-2.21;100.00;94371.19;5072483;28;20210;-61
2022/03/09 01:08:23;;;;;;;31.30;17.17;;;;;;;-2.23;100.00;94365.47;5054503;28;20176;-64
2022/03/09 01:10:49;;;;;;;29.07;16.53;;;;;;;-2.22;100.00;94368.75;5072720;28;20205;-62
2022/03/09 01:13:15;;;;;;;30.90;17.00;;;;;;;-2.12;100.00;94370.78;5072679;28;20600;-63
2022/03/09 01:15:41;;;;;;;33.57;17.63;;;;;;;-2.10;100.00;94375.72;5054367;28;20216;-61
2022/03/09 01:18:06;;;;;;;34.37;18.43;;;;;;;-1.88;100.00;94379.75;5054384;28;20261;-63
2022/03/09 01:20:32;;;;;;;32.83;17.43;;;;;;;-1.83;100.00;94377.06;5054477;28;20217;-63
2022/03/09 01:22:57;;;;;;;30.43;17.20;;;;;;;-1.88;100.00;94374.75;5054585;28;20319;-64
2022/03/09 01:25:23;;;;;;;30.73;16.53;;;;;;;-2.02;100.00;94374.53;5054530;28;20206;-64
2022/03/09 01:27:48;;;;;;;29.27;17.60;;;;;;;-1.99;100.00;94381.06;5054141;28;20295;-66
2022/03/09 01:30:14;;;;;;;31.93;16.73;;;;;;;-1.80;100.00;94396.88;5072331;28;20290;-62
2022/03/09 01:32:39;;;;;;;30.37;16.70;;;;;;;-1.93;100.00;94380.81;5082204;22;20644;-60
2022/03/09 01:35:06;;;;;;;27.37;15.77;;;;;;;-2.05;100.00;94374.66;5092135;28;20247;-61
2022/03/09 01:37:31;;;;;;;25.53;16.27;;;;;;;-2.09;100.00;94398.06;5092552;28;20289;-63
2022/03/09 01:39:57;;;;;;;33.43;17.57;;;;;;;-1.95;100.00;94392.53;5092347;28;20181;-63
2022/03/09 01:42:22;;;;;;;26.10;15.67;;;;;;;-2.26;100.00;94378.00;5079964;22;20230;-61
2022/03/09 01:44:48;;;;;;;31.50;16.43;;;;;;;-2.05;100.00;94379.66;5053622;28;20211;-63
2022/03/09 01:47:13;;;;;;;28.37;15.57;;;;;;;-2.01;100.00;94405.22;5071906;28;20647;-63
2022/03/09 01:49:39;;;;;;;33.70;17.33;;;;;;;-2.17;100.00;94396.75;5072033;28;20251;-63
2022/03/09 01:52:06;;;;;;;30.10;16.77;;;;;;;-2.12;100.00;94393.19;5053825;28;20201;-62
2022/03/09 01:54:31;;;;;;;25.23;15.67;;;;;;;-2.13;100.00;94403.22;5071745;28;20593;-64
2022/03/09 01:56:58;;;;;;;27.23;15.27;;;;;;;-2.10;100.00;94410.59;5071145;28;20809;-63
2022/03/09 01:59:24;;;;;;;25.53;14.33;;;;;;;-2.16;100.00;94399.19;5070819;28;20697;-61
2022/03/09 02:01:50;;;;;;;28.33;15.90;;;;;;;-2.14;100.00;94391.66;5071563;28;20199;-63
2022/03/09 02:04:17;;;;;;;30.93;17.97;;;;;;;-1.91;100.00;94399.81;5053669;28;20190;-63
2022/03/09 02:06:43;;;;;;;29.13;16.83;;;;;;;-1.90;100.00;94401.41;5071972;28;20578;-63
2022/03/09 02:11:55;;;;;;;34.07;17.80;;;;;;;-1.87;100.00;94410.44;5071387;28;20252;-63
2022/03/09 02:14:27;;;;;;;31.23;16.20;;;;;;;-1.98;100.00;94410.88;5053593;28;20718;-64
2022/03/09 02:16:57;;;;;;;31.33;16.33;;;;;;;-1.99;100.00;94405.97;5084835;22;20719;-63
2022/03/09 02:19:22;;;;;;;32.37;17.10;;;;;;;-2.06;100.00;94410.38;5071563;28;20563;-64
2022/03/09 02:22:03;;;;;;;28.53;15.63;;;;;;;-2.01;100.00;94401.06;5071378;28;20692;-62
2022/03/09 02:24:28;;;;;;;27.83;15.43;;;;;;;-2.12;100.00;94398.19;5053591;28;20243;-63
2022/03/09 02:26:54;;;;;;;32.63;16.87;;;;;;;-1.83;100.00;94400.31;5077775;22;20225;-64
2022/03/09 02:29:19;;;;;;;27.27;16.07;;;;;;;-1.89;100.00;94427.94;5071522;28;20210;-63
2022/03/09 02:31:44;;;;;;;28.60;16.20;;;;;;;-2.02;100.00;94404.41;5071633;28;20213;-63
2022/03/09 02:34:10;;;;;;;30.77;15.57;;;;;;;-2.02;100.00;94391.94;5071438;28;20562;-61
2022/03/09 02:39:00;;;;;;;27.77;15.02;;;;;;;-1.83;100.00;94415.25;5094139;22;20245;-64
2022/03/09 02:41:33;;;;;;;25.47;15.40;;;;;;;-2.07;100.00;94407.97;5071648;28;20202;-60
2022/03/09 02:44:03;;;;;;;24.47;15.20;;;;;;;-2.13;100.00;94398.25;5071588;28;20232;-61
2022/03/09 02:46:29;;;;;;;30.63;16.43;;;;;;;-2.03;100.00;94379.56;5071390;28;20289;-63
2022/03/09 02:48:55;;;;;;;28.23;15.97;;;;;;;-1.83;100.00;94400.31;5071188;28;20219;-63
2022/03/09 02:51:20;;;;;;;30.07;16.43;;;;;;;-1.93;100.00;94410.69;5053143;28;20209;-62
2022/03/09 02:53:46;;;;;;;29.17;16.83;;;;;;;-1.86;100.00;94407.09;5071195;28;20177;-61
2022/03/09 02:56:11;;;;;;;27.63;15.73;;;;;;;-1.74;100.00;94401.59;5071232;28;20207;-60
2022/03/09 02:58:36;;;;;;;30.57;16.60;;;;;;;-1.83;100.00;94406.97;5053169;28;20254;-60
2022/03/09 03:01:03;;;;;;;30.00;16.70;;;;;;;-1.94;100.00;94386.69;5053091;28;20296;-63
2022/03/09 03:03:28;;;;;;;33.13;16.40;;;;;;;-2.07;100.00;94386.38;5077579;22;20718;-62
2022/03/09 03:05:54;;;;;;;28.57;16.37;;;;;;;-2.07;100.00;94388.84;5077620;22;20230;-62
2022/03/09 03:08:19;;;;;;;26.63;15.33;;;;;;;-2.02;100.00;94391.94;5055591;28;20181;-61
2022/03/09 03:10:45;;;;;;;28.93;16.93;;;;;;;-2.00;100.00;94389.44;5074708;28;20203;-63
2022/03/09 03:13:10;;;;;;;29.97;16.27;;;;;;;-2.09;100.00;94380.66;5074693;28;20187;-61
2022/03/09 03:15:35;;;;;;;24.80;14.47;;;;;;;-2.21;100.00;94370.38;5074724;28;20232;-63
2022/03/09 03:18:01;;;;;;;28.67;16.40;;;;;;;-2.17;100.00;94389.28;5074507;28;20212;-62
2022/03/09 03:20:27;;;;;;;31.00;16.03;;;;;;;-2.29;100.00;94380.63;5074541;28;20706;-63
2022/03/09 03:22:52;;;;;;;31.47;17.33;;;;;;;-2.19;100.00;94384.38;5074534;28;20207;-61
2022/03/09 03:25:18;;;;;;;25.73;15.77;;;;;;;-2.24;100.00;94386.22;5080777;22;20607;-63
2022/03/09 03:27:43;;;;;;;32.73;15.83;;;;;;;-2.32;100.00;94383.22;5074530;28;20165;-62
2022/03/09 03:30:09;;;;;;;31.63;16.77;;;;;;;-2.39;100.00;94391.81;5074291;28;20235;-63
2022/03/09 03:32:35;;;;;;;27.70;15.40;;;;;;;-2.37;100.00;94387.59;5074146;28;20190;-62
2022/03/09 03:35:00;;;;;;;30.87;16.40;;;;;;;-2.29;100.00;94390.59;5111468;22;20252;-62
2022/03/09 03:37:26;;;;;;;33.97;17.87;;;;;;;-2.33;100.00;94379.16;5094462;28;20199;-62
2022/03/09 03:39:51;;;;;;;31.07;17.53;;;;;;;-2.32;100.00;94365.03;5093081;28;20338;-63
2022/03/09 03:42:17;;;;;;;29.50;16.00;;;;;;;-2.43;100.00;94375.41;5094338;28;20176;-62
2022/03/09 03:44:42;;;;;;;32.83;17.03;;;;;;;-2.35;100.00;94370.13;5094656;28;20825;-63
2022/03/09 03:47:08;;;;;;;31.20;16.10;;;;;;;-2.43;100.00;94374.59;5095991;22;20309;-64
2022/03/09 03:49:33;;;;;;;29.53;16.23;;;;;;;-2.49;100.00;94378.13;5055742;28;20178;-63
2022/03/09 03:51:59;;;;;;;27.77;16.67;;;;;;;-2.51;100.00;94376.56;5080269;22;20220;-61
2022/03/09 03:54:24;;;;;;;29.90;16.57;;;;;;;-2.36;100.00;94371.78;5073765;28;20169;-63
2022/03/09 03:56:50;;;;;;;29.97;16.10;;;;;;;-2.16;100.00;94381.75;5073563;28;20273;-63
2022/03/09 03:59:15;;;;;;;29.27;16.77;;;;;;;-2.19;100.00;94398.50;5073718;28;20598;-64
2022/03/09 04:01:41;;;;;;;28.93;16.57;;;;;;;-2.47;100.00;94393.81;5073901;28;20203;-62
2022/03/09 04:04:06;;;;;;;28.93;16.47;;;;;;;-2.54;100.00;94382.47;5073761;28;20173;-63
2022/03/09 04:06:32;;;;;;;27.47;16.07;;;;;;;-2.57;100.00;94397.53;5080040;22;20597;-63
2022/03/09 04:08:57;;;;;;;28.60;16.13;;;;;;;-2.57;100.00;94390.88;5055765;28;20677;-64
2022/03/09 04:11:22;;;;;;;27.20;15.60;;;;;;;-2.72;100.00;94380.69;5073931;28;20211;-61
2022/03/09 04:13:48;;;;;;;27.73;15.20;;;;;;;-2.74;100.00;94379.94;5078178;22;20247;-64
2022/03/09 04:16:13;;;;;;;33.00;16.33;;;;;;;-2.69;100.00;94376.41;5053425;28;20280;-64
2022/03/09 04:18:39;;;;;;;32.53;16.63;;;;;;;-2.63;100.00;94380.34;5052970;28;20260;-63
2022/03/09 04:21:05;;;;;;;29.53;16.37;;;;;;;-2.62;100.00;94385.25;5053273;28;20235;-64
2022/03/09 04:23:30;;;;;;;30.17;16.37;;;;;;;-2.67;100.00;94373.88;5053161;28;20227;-64
2022/03/09 04:25:56;;;;;;;28.70;16.97;;;;;;;-2.69;100.00;94370.63;5052015;28;20198;-62
2022/03/09 04:28:21;;;;;;;31.27;16.57;;;;;;;-2.60;100.00;94377.72;5053324;28;20233;-61
2022/03/09 04:30:47;;;;;;;31.10;17.00;;;;;;;-2.78;100.00;94393.34;5051672;28;20204;-60
2022/03/09 04:33:12;;;;;;;30.33;17.03;;;;;;;-2.71;100.00;94392.28;5053291;28;20174;-60
2022/03/09 04:35:37;;;;;;;27.77;16.10;;;;;;;-2.57;100.00;94390.88;5052887;28;20200;-63
2022/03/09 04:38:03;;;;;;;31.47;16.63;;;;;;;-2.75;100.00;94386.56;5053328;28;20272;-63
2022/03/09 04:40:28;;;;;;;29.10;16.67;;;;;;;-2.82;100.00;94386.88;5051538;28;20253;-61
2022/03/09 04:42:54;;;;;;;31.27;17.40;;;;;;;-2.84;100.00;94391.09;5053395;28;20237;-63
2022/03/09 04:45:20;;;;;;;30.03;15.73;;;;;;;-2.91;100.00;94382.28;5051678;28;20195;-63
2022/03/09 04:47:45;;;;;;;28.77;15.90;;;;;;;-2.96;100.00;94382.44;5051911;28;20268;-63
2022/03/09 04:50:11;;;;;;;34.13;16.93;;;;;;;-2.83;100.00;94371.13;5052654;28;20685;-63
2022/03/09 04:52:36;;;;;;;29.20;16.13;;;;;;;-2.73;100.00;94384.06;5053198;28;20643;-62
2022/03/09 04:55:03;;;;;;;24.07;14.73;;;;;;;-2.78;100.00;94391.69;5052749;28;20185;-61
2022/03/09 04:57:28;;;;;;;29.67;16.37;;;;;;;-2.59;100.00;94400.03;5053009;28;20575;-62
2022/03/09 04:59:54;;;;;;;30.37;16.27;;;;;;;-2.68;100.00;94399.59;5052669;28;20182;-63
2022/03/09 05:02:19;;;;;;;28.50;15.43;;;;;;;-2.77;100.00;94390.81;5052849;28;20181;-63
2022/03/09 05:04:45;;;;;;;27.07;14.73;;;;;;;-2.74;100.00;94394.84;5052614;28;20181;-63
2022/03/09 05:07:10;;;;;;;29.90;16.30;;;;;;;-2.69;100.00;94408.72;5052657;28;20188;-62
2022/03/09 05:09:36;;;;;;;29.20;15.47;;;;;;;-2.69;100.00;94398.78;5051078;28;20559;-60
2022/03/09 05:12:01;;;;;;;31.53;16.73;;;;;;;-2.59;100.00;94407.50;5077527;22;20313;-64
2022/03/09 05:14:34;;;;;;;32.20;16.40;;;;;;;-2.45;100.00;94416.94;5054030;28;20183;-63
2022/03/09 05:17:00;;;;;;;27.10;15.90;;;;;;;-2.61;100.00;94425.88;5053987;28;20295;-64
2022/03/09 05:19:25;;;;;;;30.93;16.77;;;;;;;-2.68;100.00;94420.31;5072409;28;20287;-63
2022/03/09 05:21:51;;;;;;;28.53;15.93;;;;;;;-2.56;100.00;94426.47;5078402;22;20233;-64
2022/03/09 05:24:17;;;;;;;31.00;17.00;;;;;;;-2.41;100.00;94440.84;5054114;28;20183;-64
2022/03/09 05:26:46;;;;;;;29.40;16.17;;;;;;;-2.42;100.00;94438.41;5072186;28;20236;-63
2022/03/09 05:29:12;;;;;;;30.27;17.00;;;;;;;-2.34;100.00;94444.69;5054083;28;20173;-63
2022/03/09 05:31:38;;;;;;;29.90;15.93;;;;;;;-2.47;100.00;94443.56;5071634;28;20202;-64
2022/03/09 05:34:03;;;;;;;30.03;16.53;;;;;;;-2.49;100.00;94432.88;5072053;28;20200;-65
2022/03/09 05:36:29;;;;;;;27.43;15.63;;;;;;;-2.48;100.00;94434.47;5072215;28;20209;-63
2022/03/09 05:38:54;;;;;;;28.13;15.73;;;;;;;-2.59;100.00;94432.38;5071923;28;20202;-62
2022/03/09 05:41:21;;;;;;;31.07;15.17;;;;;;;-2.66;100.00;94425.22;5072010;28;20206;-60
2022/03/09 05:43:48;;;;;;;28.50;16.40;;;;;;;-2.61;100.00;94433.34;5054011;28;20187;-63
2022/03/09 05:46:16;;;;;;;27.70;15.63;;;;;;;-2.64;100.00;94425.97;5072205;28;20204;-64
2022/03/09 05:48:42;;;;;;;34.83;17.80;;;;;;;-2.58;100.00;94416.59;5054317;28;20705;-62
2022/03/09 05:51:08;;;;;;;31.30;17.23;;;;;;;-2.43;100.00;94427.66;5071913;28;20211;-63
2022/03/09 05:53:34;;;;;;;30.27;16.90;;;;;;;-2.31;100.00;94447.09;5053592;28;20252;-63
2022/03/09 05:55:59;;;;;;;33.70;18.43;;;;;;;-2.34;100.00;94457.13;5053628;28;20194;-64
2022/03/09 05:58:25;;;;;;;33.20;17.90;;;;;;;-2.36;100.00;94461.38;5077884;22;20228;-64
2022/03/09 06:00:50;;;;;;;32.63;17.60;;;;;;;-2.46;100.00;94462.59;5070854;28;20236;-64
2022/03/09 06:03:16;;;;;;;33.17;16.50;;;;;;;-2.41;100.00;94478.16;5078360;22;20263;-64
2022/03/09 06:05:41;;;;;;;31.93;17.27;;;;;;;-2.34;100.00;94441.41;5071611;28;20255;-64
2022/03/09 06:08:07;;;;;;;32.77;17.43;;;;;;;-2.34;100.00;94452.16;5078293;22;20293;-64
2022/03/09 06:10:33;;;;;;;29.07;17.93;;;;;;;-2.35;100.00;94462.19;5071642;28;20195;-61
2022/03/09 06:12:58;;;;;;;34.03;18.23;;;;;;;-1.99;100.00;94476.50;5072296;28;20184;-64
2022/03/09 06:15:24;;;;;;;38.77;17.13;;;;;;;-2.03;100.00;94484.97;5071227;28;20704;-64
2022/03/09 06:17:50;;;;;;;33.63;17.70;;;;;;;-2.21;100.00;94483.19;5072195;28;20201;-61
2022/03/09 06:22:42;;;;;;;36.00;18.10;;;;;;;-2.21;100.00;94478.22;5057190;22;20231;-63
2022/03/09 06:25:08;;;;;;;33.70;19.20;;;;;;;-2.17;100.00;94477.22;5051997;28;20633;-63
2022/03/09 06:28:00;;;;;;;34.00;17.87;;;;;;;-2.23;100.00;94481.63;5052044;28;20647;-61
2022/03/09 06:30:25;;;;;;;34.20;18.40;;;;;;;-2.15;100.00;94484.63;5049656;28;20224;-64
2022/03/09 06:32:51;;;;;;;30.97;16.60;;;;;;;-1.98;100.00;94487.28;5050163;28;20186;-62
2022/03/09 06:35:16;;;;;;;33.40;17.47;;;;;;;-2.13;100.00;94485.38;5050299;28;20256;-62
2022/03/09 06:37:42;;;;;;;32.57;17.93;;;;;;;-2.16;100.00;94480.53;5051134;28;20203;-64
2022/03/09 06:40:08;;;;;;;31.13;17.80;;;;;;;-1.98;100.00;94493.03;5051290;28;20208;-63
2022/03/09 06:42:34;;;;;;;28.07;17.57;;;;;;;-1.94;100.00;94502.00;5052857;28;20184;-63
2022/03/09 06:45:03;;;;;;;34.13;18.00;;;;;;;-1.64;100.00;94494.19;5055100;28;20188;-65
2022/03/09 06:47:28;;;;;;;24.10;13.70;;;;;;;-1.65;100.00;94522.47;5055139;28;20212;-64
2022/03/09 06:49:54;;;;;;;25.93;15.97;;;;;;;-1.97;100.00;94527.06;5053638;28;20265;-63
2022/03/09 06:52:20;;;;;;;27.73;16.30;;;;;;;-1.95;100.00;94530.28;5054902;28;20619;-64
2022/03/09 06:54:45;;;;;;;24.77;15.17;;;;;;;-1.82;100.00;94528.13;5054743;28;20186;-64
2022/03/09 06:57:11;;;;;;;25.13;15.73;;;;;;;-1.74;100.00;94531.94;5055003;28;20688;-63
2022/03/09 06:59:37;;;;;;;28.50;15.87;;;;;;;-1.60;100.00;94548.03;5053611;28;20183;-64
2022/03/09 07:02:04;;;;;;;27.40;15.80;;;;;;;-1.59;100.00;94534.69;5055506;28;20276;-63
2022/03/09 07:04:30;;;;;;;30.47;15.97;;;;;;;-1.57;100.00;94548.69;5053526;28;20652;-61
2022/03/09 07:06:56;;;;;;;29.20;16.07;;;;;;;-1.75;100.00;94547.75;5053186;28;20770;-64
2022/03/09 07:09:22;;;;;;;29.60;16.60;;;;;;;-1.52;100.00;94556.81;5054768;28;20191;-64
2022/03/09 07:11:47;;;;;;;30.77;16.47;;;;;;;-1.48;100.00;94552.50;5053283;28;20218;-64
2022/03/09 07:14:13;;;;;;;25.90;15.13;;;;;;;-1.30;100.00;94561.75;5054787;28;20180;-64
2022/03/09 07:16:38;;;;;;;28.53;16.13;;;;;;;-1.14;100.00;94527.81;5053335;28;20256;-65
2022/03/09 07:19:04;;;;;;;28.80;15.27;;;;;;;-0.98;100.00;94593.63;5054517;28;20207;-60
2022/03/09 07:21:29;;;;;;;23.40;14.90;;;;;;;-1.03;100.00;94570.59;5053223;28;20219;-61
2022/03/09 07:23:55;;;;;;;23.27;13.93;;;;;;;-0.98;100.00;94574.50;5053318;28;20199;-63
2022/03/09 07:26:21;;;;;;;29.63;16.17;;;;;;;-0.68;100.00;94594.84;5062681;22;20215;-64
2022/03/09 07:28:46;;;;;;;26.60;15.57;;;;;;;-0.51;100.00;94587.47;5074472;28;20560;-65
2022/03/09 07:31:12;;;;;;;27.13;15.40;;;;;;;-0.50;100.00;94606.53;5074619;28;20199;-63
2022/03/09 07:33:37;;;;;;;22.67;13.93;;;;;;;-0.59;98.59;94619.44;5074633;28;20186;-66
2022/03/09 07:36:04;;;;;;;23.60;14.13;;;;;;;-0.78;98.51;94608.59;5074187;28;20532;-64
2022/03/09 07:38:30;;;;;;;25.13;14.97;;;;;;;-0.65;98.32;94602.22;5055685;28;20211;-64
2022/03/09 07:40:55;;;;;;;27.43;16.23;;;;;;;-0.76;99.81;94581.88;5073694;28;20286;-63
2022/03/09 07:43:21;;;;;;;26.77;15.03;;;;;;;-0.86;98.17;94611.41;5074009;28;20262;-61
2022/03/09 07:45:47;;;;;;;21.77;13.33;;;;;;;-0.94;98.74;94585.97;5073753;28;20583;-62
2022/03/09 07:48:13;;;;;;;28.63;15.00;;;;;;;-0.95;98.90;94579.34;5073713;28;20177;-63
2022/03/09 07:50:38;;;;;;;23.10;13.83;;;;;;;-0.73;98.84;94584.28;5073935;28;20196;-62
2022/03/09 07:53:05;;;;;;;25.03;14.30;;;;;;;-0.47;98.50;94596.44;5055727;28;20241;-64
2022/03/09 07:55:31;;;;;;;24.07;15.27;;;;;;;-0.47;97.36;94608.09;5073054;28;20231;-64
2022/03/09 07:57:56;;;;;;;22.80;14.27;;;;;;;-0.36;96.85;94614.25;5073704;28;20287;-61
2022/03/09 08:00:22;;;;;;;22.27;13.70;;;;;;;0.04;96.35;94615.00;5055553;28;20242;-62
2022/03/09 08:02:48;;;;;;;23.17;14.30;;;;;;;0.13;94.10;94652.03;5080662;22;20259;-63
2022/03/09 08:05:14;;;;;;;22.60;14.53;;;;;;;0.34;92.68;94668.59;5073895;28;20216;-62
2022/03/09 08:07:40;;;;;;;26.03;15.23;;;;;;;0.74;92.38;94656.69;5073525;28;20203;-60
2022/03/09 08:10:06;;;;;;;25.97;14.70;;;;;;;0.99;91.20;94680.56;5073503;28;20654;-63
2022/03/09 08:12:33;;;;;;;25.67;14.60;;;;;;;0.73;89.78;94686.75;5073594;28;20191;-65
2022/03/09 08:14:58;;;;;;;22.93;14.13;;;;;;;1.16;90.18;94676.34;5055552;28;20181;-63
2022/03/09 08:17:24;;;;;;;20.47;13.67;;;;;;;1.28;88.56;94680.78;5073561;28;20304;-63
2022/03/09 08:19:49;;;;;;;22.90;13.87;;;;;;;1.49;86.57;94724.81;5073248;28;20188;-64
2022/03/09 08:22:15;;;;;;;26.50;15.20;;;;;;;1.47;88.06;94678.19;5073331;28;20211;-65
2022/03/09 08:24:40;;;;;;;25.77;15.77;;;;;;;1.97;90.70;94623.81;5055281;28;20196;-62
2022/03/09 08:27:06;;;;;;;27.20;15.07;;;;;;;2.33;87.61;94681.25;5073061;28;20205;-62
2022/03/09 08:29:31;;;;;;;27.53;16.17;;;;;;;2.38;89.10;94652.53;5073074;28;20562;-64
2022/03/09 08:31:57;;;;;;;26.07;15.00;;;;;;;2.80;87.89;94682.03;5054927;28;20637;-63
2022/03/09 08:34:23;;;;;;;29.53;16.77;;;;;;;2.43;87.41;94673.16;5079300;22;20373;-61
2022/03/09 08:36:48;;;;;;;26.20;15.47;;;;;;;2.11;86.46;94690.78;5072619;28;20193;-62
2022/03/09 08:39:14;;;;;;;25.93;15.97;;;;;;;2.33;86.02;94697.13;5071029;23;20314;-63
2022/03/09 08:41:39;;;;;;;26.30;15.67;;;;;;;2.72;89.80;94603.84;5092980;28;20200;-63
2022/03/09 08:44:05;;;;;;;27.33;15.70;;;;;;;3.34;92.68;94538.31;5093077;28;20659;-62
2022/03/09 08:46:30;;;;;;;24.20;15.67;;;;;;;3.45;87.42;94655.78;5085584;22;20260;-63
2022/03/09 08:48:56;;;;;;;25.07;16.13;;;;;;;3.68;86.51;94674.53;5073042;28;20181;-63
2022/03/09 08:51:22;;;;;;;26.73;15.13;;;;;;;3.61;84.35;94721.03;5040975;28;20239;-63
2022/03/09 08:53:48;;;;;;;23.73;15.00;;;;;;;3.07;76.39;94748.31;5077023;22;20220;-61
2022/03/09 08:56:14;;;;;;;20.30;13.57;;;;;;;2.93;74.30;94748.25;5042037;28;20216;-61
2022/03/09 08:58:40;;;;;;;20.83;13.03;;;;;;;2.82;72.38;94782.34;5052449;28;20201;-63
2022/03/09 09:01:06;;;;;;;18.83;13.07;;;;;;;2.68;71.11;94774.72;5052695;28;20259;-63
2022/03/09 09:03:32;;;;;;;18.37;11.30;;;;;;;2.73;70.54;94757.75;5052640;28;20177;-63
2022/03/09 09:05:58;;;;;;;21.60;13.10;;;;;;;3.42;70.65;94774.00;5052114;28;20228;-63
2022/03/09 09:08:24;;;;;;;21.57;14.23;;;;;;;3.51;70.27;94760.16;5052610;28;20175;-64
2022/03/09 09:10:49;;;;;;;23.77;13.87;;;;;;;3.66;71.91;94719.88;5071065;22;20641;-63
2022/03/09 09:13:15;;;;;;;22.83;14.67;;;;;;;4.20;70.78;94729.25;5072083;28;20188;-64
2022/03/09 09:15:42;;;;;;;25.00;15.77;;;;;;;4.56;70.74;94733.81;5078407;22;20707;-64
2022/03/09 09:18:08;;;;;;;28.00;17.60;;;;;;;5.25;70.87;94722.84;5071882;28;20196;-67
2022/03/09 09:20:35;;;;;;;27.83;17.53;;;;;;;5.55;69.71;94751.13;5072259;28;20216;-64
2022/03/09 09:23:00;;;;;;;28.33;17.27;;;;;;;4.24;70.96;94702.22;5072056;28;20189;-64
2022/03/09 09:25:28;;;;;;;25.00;16.60;;;;;;;5.14;71.43;94680.66;5072138;28;20202;-63
2022/03/09 09:27:55;;;;;;;24.00;16.87;;;;;;;5.09;69.52;94735.56;5072040;28;20179;-64
2022/03/09 09:30:22;;;;;;;28.20;17.53;;;;;;;4.79;69.09;94750.84;5072148;28;20339;-64
2022/03/09 09:32:47;;;;;;;24.63;16.60;;;;;;;4.71;66.99;94788.28;5053567;28;20185;-64
2022/03/09 09:35:14;;;;;;;21.23;14.27;;;;;;;4.63;67.05;94767.78;5053743;28;20211;-65
2022/03/09 09:37:41;;;;;;;22.70;14.90;;;;;;;5.27;67.98;94746.22;5071230;28;20214;-64
2022/03/09 09:40:08;;;;;;;28.13;14.63;;;;;;;5.39;65.97;94786.59;5071381;28;20202;-63
2022/03/09 09:42:34;;;;;;;25.17;15.23;;;;;;;4.90;63.76;94788.78;5071274;28;20176;-66
2022/03/09 09:45:01;;;;;;;24.37;14.73;;;;;;;5.50;65.31;94721.16;5053460;28;20184;-64
2022/03/09 09:47:28;;;;;;;24.23;15.33;;;;;;;6.26;62.62;94785.13;5071492;28;20177;-64
2022/03/09 09:49:55;;;;;;;23.63;14.53;;;;;;;6.68;61.49;94824.44;5071609;28;20633;-64
2022/03/09 09:52:24;;;;;;;22.60;15.37;;;;;;;6.83;57.78;94871.38;5071396;28;20175;-64
2022/03/09 09:54:52;;;;;;;25.90;15.37;;;;;;;7.22;57.39;94828.25;5071891;28;20211;-63
2022/03/09 09:57:18;;;;;;;18.23;12.70;;;;;;;6.22;55.43;94849.34;5071596;28;20311;-65
2022/03/09 09:59:44;;;;;;;15.30;11.40;;;;;;;5.70;54.76;94840.94;5071839;28;20245;-65
2022/03/09 10:02:10;;;;;;;17.83;13.27;;;;;;;6.24;51.59;94903.06;5071838;28;20229;-64
2022/03/09 10:04:38;;;;;;;18.27;12.50;;;;;;;6.27;52.89;94849.06;5078089;22;20226;-65
2022/03/09 10:07:03;;;;;;;21.03;14.70;;;;;;;5.75;54.50;94801.09;5071521;28;20203;-65
2022/03/09 10:09:42;;;;;;;15.37;9.77;;;;;;;5.33;50.96;94889.50;5071554;28;20665;-65
2022/03/09 10:12:10;;;;;;;12.70;8.47;;;;;;;5.46;51.92;94824.81;5071476;28;20238;-64
2022/03/09 10:14:54;;;;;;;14.63;10.53;;;;;;;5.01;51.88;94824.19;5071365;28;20647;-64
2022/03/09 10:17:21;;;;;;;12.33;8.70;;;;;;;4.39;52.38;94812.00;5054543;28;20195;-64
2022/03/09 10:19:52;;;;;;;15.20;9.20;;;;;;;4.12;52.74;94778.41;5057573;28;20178;-64
2022/03/09 10:22:34;;;;;;;13.40;9.13;;;;;;;4.37;53.21;94773.56;5057556;28;20285;-64
2022/03/09 10:25:17;;;;;;;20.63;12.93;;;;;;;4.70;55.57;94696.03;5075549;28;20641;-66
2022/03/09 10:27:51;;;;;;;19.67;11.93;;;;;;;4.85;56.56;94690.03;5057426;28;20220;-65
2022/03/09 10:30:29;;;;;;;18.97;11.97;;;;;;;5.32;57.16;94671.94;5057364;28;20200;-64
2022/03/09 10:32:59;;;;;;;13.23;9.13;;;;;;;4.40;54.35;94730.59;5075705;28;20196;-65
2022/03/09 10:35:31;;;;;;;14.27;10.63;;;;;;;4.22;55.67;94712.34;5056822;28;20215;-65
2022/03/09 10:38:02;;;;;;;15.63;10.80;;;;;;;4.65;56.89;94664.47;5075203;28;20271;-64
2022/03/09 10:40:30;;;;;;;17.13;10.27;;;;;;;4.68;54.93;94730.56;5057348;28;20207;-64
2022/03/09 10:43:14;;;;;;;16.57;9.67;;;;;;;4.34;55.09;94730.97;5081525;22;20236;-67
2022/03/09 10:45:58;;;;;;;14.70;10.30;;;;;;;3.87;56.58;94660.03;5075094;28;20193;-64
2022/03/09 10:48:24;;;;;;;13.30;8.30;;;;;;;4.81;53.56;94755.78;5075129;28;20185;-65
2022/03/09 10:50:51;;;;;;;15.13;9.63;;;;;;;5.24;52.95;94776.63;5081476;22;20610;-66
2022/03/09 10:53:17;;;;;;;14.17;9.87;;;;;;;5.72;50.92;94829.03;5074818;28;20522;-65
2022/03/09 10:55:43;;;;;;;14.33;9.10;;;;;;;5.44;50.36;94831.66;5082340;22;20309;-65
2022/03/09 10:58:10;;;;;;;11.03;8.17;;;;;;;4.45;52.09;94766.34;5074703;28;20216;-65
2022/03/09 11:00:37;;;;;;;12.93;8.53;;;;;;;5.07;53.24;94729.81;5056767;28;20211;-64
2022/03/09 11:03:08;;;;;;;15.03;9.77;;;;;;;5.69;53.20;94723.31;5074492;28;20726;-64
2022/03/09 11:05:34;;;;;;;12.13;8.20;;;;;;;6.65;49.21;94855.75;5074351;28;20282;-64
2022/03/09 11:08:01;;;;;;;11.40;7.73;;;;;;;6.58;47.93;94816.66;5056313;28;20195;-65
2022/03/09 11:10:34;;;;;;;13.47;7.40;;;;;;;6.09;47.23;94750.13;5056477;28;20268;-64
2022/03/09 11:13:00;;;;;;;11.73;7.40;;;;;;;5.75;47.58;94710.31;5041081;28;20211;-64
2022/03/09 11:15:27;;;;;;;11.37;8.00;;;;;;;5.99;46.97;94740.72;5056267;28;20679;-64
2022/03/09 11:17:52;;;;;;;11.60;7.60;;;;;;;6.13;46.65;94723.78;5056420;28;20211;-65